createdAt,value
2018-08-03T00:02:19.593Z,16.20
2018-08-03T00:04:47.831Z,15.40
2018-08-03T00:07:16.024Z,14.37
2018-08-03T00:09:44.013Z,16.93
2018-08-03T00:12:12.203Z,15.30
2018-08-03T00:14:40.604Z,15.90
2018-08-03T00:17:08.804Z,15.73
2018-08-03T00:19:37.204Z,17.77
2018-08-03T00:22:09.339Z,15.23
2018-08-03T00:24:37.594Z,15.05
2018-08-03T00:27:05.856Z,16.90
2018-08-03T00:29:34.073Z,14.98
2018-08-03T00:32:02.323Z,14.53
2018-08-03T00:34:30.573Z,14.45
2018-08-03T00:36:58.749Z,14.43
2018-08-03T00:39:27.130Z,14.70
2018-08-03T00:41:55.331Z,14.20
2018-08-03T00:44:23.557Z,14.58
2018-08-03T00:46:51.781Z,15.43
2018-08-03T00:49:21.337Z,15.18
2018-08-03T00:51:53.375Z,15.87
2018-08-03T00:54:22.457Z,12.70
2018-08-03T00:56:50.639Z,15.80
2018-08-03T00:59:18.847Z,15.48
2018-08-03T01:01:47.070Z,13.13
2018-08-03T01:04:15.271Z,14.30
2018-08-03T01:06:47.751Z,11.85
2018-08-03T01:09:15.953Z,13.40
2018-08-03T01:11:44.174Z,12.10
2018-08-03T01:14:12.381Z,13.33
2018-08-03T01:16:41.613Z,11.40
2018-08-03T01:19:12.107Z,12.28
2018-08-03T01:21:49.741Z,12.47
2018-08-03T01:24:17.915Z,11.80
2018-08-03T01:26:46.122Z,12.70
2018-08-03T01:29:14.296Z,12.93
2018-08-03T01:31:42.996Z,12.78
2018-08-03T01:34:11.196Z,13.60
2018-08-03T01:36:39.398Z,11.87
2018-08-03T01:39:08.756Z,12.17
2018-08-03T01:41:36.972Z,12.50
2018-08-03T01:44:08.126Z,12.00
2018-08-03T01:46:36.319Z,12.50
2018-08-03T01:49:04.490Z,12.98
2018-08-03T01:51:33.238Z,11.30
2018-08-03T01:54:01.434Z,13.67
2018-08-03T01:56:29.628Z,11.80
2018-08-03T01:58:58.506Z,12.40
2018-08-03T02:01:26.743Z,11.57
2018-08-03T02:03:54.969Z,11.48
2018-08-03T02:06:23.188Z,12.10
2018-08-03T02:08:51.429Z,11.47
2018-08-03T02:11:19.618Z,12.53
2018-08-03T02:13:47.886Z,12.47
2018-08-03T02:16:16.121Z,12.10
2018-08-03T02:18:44.310Z,11.87
2018-08-03T02:21:13.351Z,12.33
2018-08-03T02:23:43.071Z,13.60
2018-08-03T02:26:11.270Z,13.10
2018-08-03T02:28:39.427Z,12.93
2018-08-03T02:31:08.244Z,12.63
2018-08-03T02:33:36.444Z,12.58
2018-08-03T02:36:04.689Z,12.30
2018-08-03T02:38:32.893Z,14.53
2018-08-03T02:41:01.091Z,12.00
2018-08-03T02:43:29.292Z,11.90
2018-08-03T02:45:57.500Z,11.37
2018-08-03T02:48:25.664Z,11.43
2018-08-03T02:50:54.315Z,12.30
2018-08-03T02:53:22.488Z,12.10
2018-08-03T02:55:54.217Z,13.48
2018-08-03T02:58:22.852Z,12.17
2018-08-03T03:00:51.062Z,13.62
2018-08-03T03:03:19.248Z,12.47
2018-08-03T03:05:47.437Z,11.97
2018-08-03T03:08:15.674Z,12.07
2018-08-03T03:10:43.867Z,12.60
2018-08-03T03:13:12.456Z,12.00
2018-08-03T03:15:41.355Z,13.03
2018-08-03T03:18:09.548Z,11.85
2018-08-03T03:20:37.840Z,11.20
2018-08-03T03:23:06.503Z,11.93
2018-08-03T03:25:34.995Z,14.13
2018-08-03T03:28:03.200Z,11.60
2018-08-03T03:30:32.747Z,12.43
2018-08-03T03:33:01.161Z,12.95
2018-08-03T03:35:30.188Z,13.25
2018-08-03T03:37:58.518Z,12.43
2018-08-03T03:40:26.836Z,13.33
2018-08-03T03:42:56.448Z,11.40
2018-08-03T03:45:24.657Z,12.25
2018-08-03T03:47:53.863Z,13.20
2018-08-03T03:50:22.062Z,12.70
2018-08-03T03:52:51.229Z,12.43
2018-08-03T03:55:30.582Z,12.73
2018-08-03T03:57:59.329Z,12.40
2018-08-03T04:00:28.164Z,13.15
2018-08-03T04:02:56.139Z,12.37
2018-08-03T04:05:24.328Z,12.33
2018-08-03T04:07:53.113Z,12.70
2018-08-03T04:10:24.329Z,12.07
2018-08-03T04:12:53.161Z,13.28
2018-08-03T04:15:22.153Z,13.53
2018-08-03T04:17:50.412Z,12.20
2018-08-03T04:20:18.619Z,13.70
2018-08-03T04:22:46.868Z,12.33
2018-08-03T04:25:18.898Z,13.10
2018-08-03T04:27:47.105Z,14.07
2018-08-03T04:30:15.309Z,12.90
2018-08-03T04:32:43.479Z,13.07
2018-08-03T04:35:11.704Z,13.53
2018-08-03T04:37:39.903Z,13.62
2018-08-03T04:40:10.968Z,12.30
2018-08-03T04:42:42.048Z,12.75
2018-08-03T04:45:10.264Z,12.80
2018-08-03T04:47:38.430Z,13.10
2018-08-03T04:50:06.666Z,12.53
2018-08-03T04:52:34.856Z,11.60
2018-08-03T04:55:06.772Z,13.80
2018-08-03T04:57:43.012Z,11.03
2018-08-03T05:00:11.225Z,11.80
2018-08-03T05:02:39.773Z,12.10
2018-08-03T05:05:08.019Z,11.23
2018-08-03T05:07:36.241Z,12.07
2018-08-03T05:10:05.236Z,10.85
2018-08-03T05:12:37.534Z,11.60
2018-08-03T05:15:06.373Z,11.23
2018-08-03T05:17:37.044Z,11.40
2018-08-03T05:20:05.387Z,11.15
2018-08-03T05:22:34.805Z,11.10
2018-08-03T05:25:03.017Z,11.30
2018-08-03T05:27:35.088Z,11.87
2018-08-03T05:30:04.483Z,10.07
2018-08-03T05:32:32.716Z,10.75
2018-08-03T05:35:01.951Z,10.48
2018-08-03T05:37:32.120Z,10.23
2018-08-03T05:40:01.207Z,7.70
2018-08-03T05:42:29.733Z,8.03
2018-08-03T05:44:57.955Z,8.53
2018-08-03T05:47:26.285Z,7.70
2018-08-03T05:49:55.485Z,8.70
2018-08-03T05:52:23.892Z,8.47
2018-08-03T05:54:52.094Z,7.47
2018-08-03T05:57:24.046Z,8.23
2018-08-03T05:59:52.253Z,9.13
2018-08-03T06:02:20.537Z,8.37
2018-08-03T06:04:48.756Z,8.15
2018-08-03T06:07:17.309Z,8.00
2018-08-03T06:19:26.426Z,7.40
2018-08-03T06:21:54.616Z,6.80
2018-08-03T06:24:23.255Z,8.90
2018-08-03T06:26:54.671Z,7.65
2018-08-03T06:29:22.909Z,8.47
2018-08-03T06:31:51.626Z,7.92
2018-08-03T06:34:20.251Z,9.30
2018-08-03T06:36:49.451Z,9.60
2018-08-03T06:39:17.696Z,8.70
2018-08-03T06:41:45.915Z,8.93
2018-08-03T06:44:14.177Z,9.67
2018-08-03T06:46:42.408Z,10.33
2018-08-03T06:49:10.627Z,10.83
2018-08-03T06:51:39.419Z,10.33
2018-08-03T06:54:08.823Z,9.70
2018-08-03T06:56:37.687Z,11.60
2018-08-03T06:59:06.032Z,9.90
2018-08-03T07:01:34.250Z,11.05
2018-08-03T07:04:03.563Z,9.45
2018-08-03T07:06:31.756Z,9.60
2018-08-03T07:08:59.979Z,9.47
2018-08-03T07:11:29.024Z,9.70
2018-08-03T07:13:58.660Z,9.77
2018-08-03T07:16:26.916Z,9.47
2018-08-03T07:18:56.516Z,9.93
2018-08-03T07:21:25.179Z,9.93
2018-08-03T07:23:53.608Z,9.30
2018-08-03T07:26:21.832Z,9.20
2018-08-03T07:28:50.663Z,9.07
2018-08-03T07:31:19.763Z,8.53
2018-08-03T07:33:49.683Z,10.10
2018-08-03T07:36:19.005Z,9.83
2018-08-03T07:38:47.620Z,8.77
2018-08-03T07:41:15.823Z,9.60
2018-08-03T07:43:48.300Z,10.30
2018-08-03T07:46:16.780Z,9.80
2018-08-03T07:48:46.206Z,10.70
2018-08-03T07:51:14.375Z,10.60
2018-08-03T07:53:42.605Z,10.13
2018-08-03T07:56:10.954Z,8.20
2018-08-03T07:58:40.284Z,8.97
2018-08-03T08:01:09.907Z,9.10
2018-08-03T08:03:39.302Z,9.75
2018-08-03T08:06:08.805Z,9.50
2018-08-03T08:08:38.200Z,9.87
2018-08-03T08:11:06.472Z,8.83
2018-08-03T08:13:38.080Z,10.20
2018-08-03T08:16:06.441Z,10.82
2018-08-03T08:18:36.074Z,10.48
2018-08-03T08:21:04.634Z,9.52
2018-08-03T08:23:32.901Z,10.23
2018-08-03T08:26:01.154Z,10.17
2018-08-03T08:28:29.732Z,10.78
2018-08-03T08:30:58.571Z,9.43
2018-08-03T08:33:26.833Z,9.75
2018-08-03T08:35:55.076Z,9.83
2018-08-03T08:38:23.352Z,11.03
2018-08-03T08:40:51.610Z,9.80
2018-08-03T08:43:20.244Z,10.18
2018-08-03T08:45:49.468Z,10.13
2018-08-03T08:48:17.713Z,9.70
2018-08-03T08:50:46.233Z,10.43
2018-08-03T08:53:19.620Z,10.27
2018-08-03T08:55:48.736Z,9.00
2018-08-03T08:58:16.987Z,9.68
2018-08-03T09:00:45.200Z,11.28
2018-08-03T09:03:13.446Z,9.70
2018-08-03T09:05:41.751Z,10.63
2018-08-03T09:08:10.001Z,10.87
2018-08-03T09:10:38.211Z,11.37
2018-08-03T09:13:06.535Z,11.53
2018-08-03T09:15:37.888Z,9.67
2018-08-03T09:18:06.084Z,10.07
2018-08-03T09:20:34.840Z,10.43
2018-08-03T09:23:03.061Z,10.90
2018-08-03T09:25:31.324Z,13.63
2018-08-03T09:27:59.530Z,10.05
2018-08-03T09:30:30.928Z,11.28
2018-08-03T09:33:03.496Z,11.33
2018-08-03T09:35:31.724Z,10.47
2018-08-03T09:38:00.257Z,10.97
2018-08-03T09:40:30.026Z,9.53
2018-08-03T09:42:58.598Z,11.10
2018-08-03T09:45:26.751Z,10.87
2018-08-03T09:47:54.935Z,10.50
2018-08-03T09:50:23.164Z,11.47
2018-08-03T09:52:51.916Z,10.70
2018-08-03T09:55:21.219Z,10.43
2018-08-03T09:57:49.839Z,10.12
2018-08-03T10:00:22.955Z,10.20
2018-08-03T10:02:51.456Z,10.23
2018-08-03T10:05:19.625Z,9.93
2018-08-03T10:07:51.290Z,9.40
2018-08-03T10:10:19.783Z,10.07
2018-08-03T10:12:49.522Z,10.32
2018-08-03T10:15:17.756Z,9.73
2018-08-03T10:17:45.945Z,9.93
2018-08-03T10:20:14.960Z,10.70
2018-08-03T10:22:43.195Z,9.87
2018-08-03T10:25:11.429Z,9.97
2018-08-03T10:27:41.284Z,10.20
2018-08-03T10:30:10.363Z,9.97
2018-08-03T10:32:41.708Z,9.43
2018-08-03T10:35:10.211Z,10.63
2018-08-03T10:37:38.428Z,10.20
2018-08-03T10:40:07.188Z,9.60
2018-08-03T10:42:35.848Z,10.48
2018-08-03T10:45:04.331Z,9.50
2018-08-03T10:47:33.155Z,9.15
2018-08-03T10:50:01.382Z,9.47
2018-08-03T10:52:29.613Z,9.75
2018-08-03T10:54:57.824Z,10.20
2018-08-03T10:57:26.090Z,10.17
2018-08-03T10:59:54.319Z,9.05
2018-08-03T11:02:25.928Z,8.63
2018-08-03T11:04:54.115Z,8.98
2018-08-03T11:07:22.351Z,8.85
2018-08-03T11:09:50.877Z,9.58
2018-08-03T11:12:19.164Z,9.23
2018-08-03T11:14:47.361Z,8.98
2018-08-03T11:17:18.763Z,9.93
2018-08-03T11:19:46.982Z,9.67
2018-08-03T11:22:15.713Z,9.73
2018-08-03T11:24:43.880Z,10.87
2018-08-03T11:27:12.069Z,8.97
2018-08-03T11:29:40.316Z,9.90
2018-08-03T11:32:11.591Z,10.10
2018-08-03T11:34:41.069Z,8.73
2018-08-03T11:37:09.328Z,9.43
2018-08-03T11:39:37.535Z,9.10
2018-08-03T11:42:05.724Z,8.60
2018-08-03T11:44:33.953Z,9.90
2018-08-03T11:47:10.033Z,9.13
2018-08-03T11:49:38.864Z,9.10
2018-08-03T11:52:07.195Z,9.47
2018-08-03T11:54:35.761Z,8.70
2018-08-03T11:57:04.597Z,9.87
2018-08-03T11:59:32.757Z,8.63
2018-08-03T12:02:02.077Z,9.80
2018-08-03T12:04:30.169Z,9.90
2018-08-03T12:06:58.379Z,8.97
2018-08-03T12:09:26.568Z,9.55
2018-08-03T12:11:54.867Z,10.32
2018-08-03T12:14:23.053Z,8.80
2018-08-03T12:16:51.251Z,9.40
2018-08-03T12:19:19.419Z,9.10
2018-08-03T12:21:47.839Z,8.80
2018-08-03T12:24:16.046Z,9.53
2018-08-03T12:26:44.842Z,10.13
2018-08-03T12:29:13.111Z,8.70
2018-08-03T12:31:41.462Z,8.70
2018-08-03T12:34:13.468Z,9.53
2018-08-03T12:36:41.634Z,9.55
2018-08-03T12:39:11.138Z,8.70
2018-08-03T12:41:39.844Z,8.80
2018-08-03T12:44:08.277Z,9.53
2018-08-03T12:46:36.621Z,8.73
2018-08-03T12:49:05.680Z,9.53
2018-08-03T12:51:33.979Z,8.90
2018-08-03T12:54:02.209Z,9.65
2018-08-03T12:56:31.533Z,9.48
2018-08-03T12:59:00.615Z,10.60
2018-08-03T13:01:29.007Z,9.93
2018-08-03T13:04:00.251Z,9.03
2018-08-03T13:06:28.680Z,9.40
2018-08-03T13:08:57.113Z,9.53
2018-08-03T13:11:26.198Z,9.50
2018-08-03T13:16:29.106Z,9.80
2018-08-03T13:18:57.337Z,9.93
2018-08-03T13:21:34.667Z,9.33
2018-08-03T13:24:03.353Z,10.23
2018-08-03T13:26:31.691Z,9.65
2018-08-03T13:29:00.234Z,9.78
2018-08-03T13:31:28.982Z,8.63
2018-08-03T13:33:58.038Z,10.90
2018-08-03T13:36:28.532Z,9.83
2018-08-03T13:38:56.668Z,8.97
2018-08-03T13:41:24.848Z,10.27
2018-08-03T13:43:53.043Z,8.90
2018-08-03T13:46:21.230Z,8.50
2018-08-03T13:48:49.959Z,9.33
2018-08-03T13:51:18.816Z,9.77
2018-08-03T13:53:48.428Z,9.10
2018-08-03T13:56:17.462Z,9.10
2018-08-03T13:58:46.430Z,8.43
2018-08-03T14:01:26.196Z,8.60
2018-08-03T14:03:54.776Z,9.08
2018-08-03T14:06:22.944Z,8.17
2018-08-03T14:08:51.150Z,8.73
2018-08-03T14:11:20.219Z,10.10
2018-08-03T14:13:48.568Z,8.47
2018-08-03T14:16:16.834Z,9.50
2018-08-03T14:18:45.878Z,9.88
2018-08-03T14:21:14.624Z,9.40
2018-08-03T14:23:43.439Z,9.28
2018-08-03T14:26:11.716Z,8.03
2018-08-03T14:28:39.957Z,8.37
2018-08-03T14:31:08.138Z,9.13
2018-08-03T14:33:36.398Z,9.40
2018-08-03T14:36:04.585Z,9.47
2018-08-03T14:38:32.760Z,9.33
2018-08-03T14:41:00.959Z,9.00
2018-08-03T14:43:29.177Z,9.13
2018-08-03T14:45:57.386Z,9.30
2018-08-03T14:48:25.568Z,9.77
2018-08-03T14:50:54.015Z,10.20
2018-08-03T14:53:22.187Z,9.53
2018-08-03T14:55:50.406Z,8.70
2018-08-03T14:58:18.809Z,8.70
2018-08-03T15:00:47.020Z,9.25
2018-08-03T15:03:15.328Z,9.30
2018-08-03T15:05:43.572Z,9.27
2018-08-03T15:08:11.743Z,12.35
2018-08-03T15:10:39.940Z,9.20
2018-08-03T15:13:08.108Z,10.80
2018-08-03T15:15:36.655Z,9.83
2018-08-03T15:18:04.835Z,9.83
2018-08-03T15:20:34.026Z,9.67
2018-08-03T15:23:02.478Z,8.82
2018-08-03T15:25:31.707Z,9.43
2018-08-03T15:27:59.930Z,9.70
2018-08-03T15:30:28.344Z,9.73
2018-08-03T15:32:57.362Z,10.50
2018-08-03T15:35:25.919Z,10.03
2018-08-03T15:37:54.635Z,10.63
2018-08-03T15:40:22.876Z,10.67
2018-08-03T15:42:51.105Z,10.03
2018-08-03T15:45:19.383Z,9.30
2018-08-03T15:47:47.734Z,10.53
2018-08-03T15:50:15.995Z,8.73
2018-08-03T15:52:45.289Z,9.30
2018-08-03T15:55:13.509Z,9.17
2018-08-03T15:57:42.627Z,10.45
2018-08-03T16:00:10.973Z,9.13
2018-08-03T16:02:39.516Z,9.90
2018-08-03T16:05:08.648Z,11.27
2018-08-03T16:07:36.688Z,11.18
2018-08-03T16:10:05.307Z,9.77
2018-08-03T16:12:33.536Z,10.87
2018-08-03T16:15:01.815Z,10.20
2018-08-03T16:17:30.002Z,8.90
2018-08-03T16:19:58.212Z,9.80
2018-08-03T16:22:31.007Z,9.10
2018-08-03T16:24:59.215Z,10.90
2018-08-03T16:27:27.411Z,8.37
2018-08-03T16:29:55.602Z,9.05
2018-08-03T16:32:23.787Z,8.10
2018-08-03T16:34:52.428Z,9.33
2018-08-03T16:37:29.027Z,8.70
2018-08-03T16:40:01.647Z,7.40
2018-08-03T16:42:29.819Z,8.47
2018-08-03T16:44:58.221Z,8.73
2018-08-03T16:47:26.440Z,8.87
2018-08-03T16:49:54.670Z,8.65
2018-08-03T16:52:27.735Z,9.57
2018-08-03T16:54:55.937Z,8.40
2018-08-03T16:57:24.168Z,9.13
2018-08-03T16:59:52.326Z,8.90
2018-08-03T17:02:20.546Z,8.73
2018-08-03T17:04:49.044Z,9.13
2018-08-03T17:07:17.257Z,8.97
2018-08-03T17:09:48.315Z,9.10
2018-08-03T17:12:16.563Z,8.30
2018-08-03T17:14:45.013Z,7.50
2018-08-03T17:17:13.469Z,7.10
2018-08-03T17:19:42.446Z,8.33
2018-08-03T17:22:12.460Z,7.80
2018-08-03T17:24:48.816Z,8.17
2018-08-03T17:27:17.056Z,7.63
2018-08-03T17:29:45.328Z,7.30
2018-08-03T17:32:13.524Z,8.58
2018-08-03T17:34:41.781Z,7.43
2018-08-03T17:37:09.992Z,8.37
2018-08-03T17:39:41.446Z,8.40
2018-08-03T17:42:09.839Z,8.68
2018-08-03T17:44:38.031Z,8.50
2018-08-03T17:47:06.271Z,9.08
2018-08-03T17:49:35.046Z,9.03
2018-08-03T17:52:03.271Z,9.40
2018-08-03T17:54:31.627Z,9.70
2018-08-03T17:56:59.796Z,8.00
2018-08-03T17:59:28.203Z,10.40
2018-08-03T18:01:56.404Z,9.60
2018-08-03T18:04:24.627Z,10.33
2018-08-03T18:06:52.828Z,9.83
2018-08-03T18:09:25.759Z,10.43
2018-08-03T18:11:53.888Z,9.55
2018-08-03T18:14:21.839Z,9.28
2018-08-03T18:16:50.025Z,9.30
2018-08-03T18:19:19.507Z,10.53
2018-08-03T18:21:47.758Z,11.30
2018-08-03T18:24:19.428Z,9.98
2018-08-03T18:26:47.728Z,10.37
2018-08-03T18:29:15.992Z,10.93
2018-08-03T18:31:45.003Z,10.93
2018-08-03T18:34:13.260Z,10.50
2018-08-03T18:36:41.694Z,11.63
2018-08-03T18:39:14.207Z,11.57
2018-08-03T18:41:42.402Z,10.87
2018-08-03T18:44:11.237Z,12.00
2018-08-03T18:46:40.343Z,11.60
2018-08-03T18:49:08.819Z,13.50
2018-08-03T18:51:37.036Z,12.45
2018-08-03T18:54:05.400Z,12.30
2018-08-03T18:56:33.692Z,12.95
2018-08-03T18:59:01.867Z,12.37
2018-08-03T19:01:30.553Z,12.57
2018-08-03T19:03:58.809Z,11.77
2018-08-03T19:06:27.059Z,12.57
2018-08-03T19:08:55.305Z,12.10
2018-08-03T19:11:23.560Z,11.50
2018-08-03T19:13:52.069Z,12.27
2018-08-03T19:16:20.254Z,13.10
2018-08-03T19:18:49.146Z,12.43
2018-08-03T19:21:17.371Z,12.10
2018-08-03T19:23:45.597Z,12.17
2018-08-03T19:26:13.922Z,11.85
2018-08-03T19:28:42.134Z,12.10
2018-08-03T19:31:11.260Z,12.20
2018-08-03T19:33:39.451Z,13.07
2018-08-03T19:36:07.636Z,12.70
2018-08-03T19:38:36.010Z,13.17
2018-08-03T19:41:04.209Z,12.17
2018-08-03T19:43:34.862Z,13.18
2018-08-03T19:46:04.201Z,13.20
2018-08-03T19:48:32.440Z,11.07
2018-08-03T19:51:03.552Z,12.23
2018-08-03T19:53:31.892Z,14.13
2018-08-03T19:56:00.092Z,11.00
2018-08-03T19:58:29.111Z,11.50
2018-08-03T20:00:57.280Z,12.73
2018-08-03T20:03:25.521Z,12.57
2018-08-03T20:05:54.218Z,11.85
2018-08-03T20:08:22.388Z,12.00
2018-08-03T20:10:53.959Z,13.58
2018-08-03T20:13:22.182Z,12.00
2018-08-03T20:15:50.364Z,12.13
2018-08-03T20:18:19.065Z,10.82
2018-08-03T20:20:47.375Z,12.58
2018-08-03T20:23:15.607Z,11.25
2018-08-03T20:25:46.869Z,11.57
2018-08-03T20:28:15.082Z,11.45
2018-08-03T20:30:44.863Z,12.75
2018-08-03T20:33:13.046Z,13.35
2018-08-03T20:35:41.289Z,12.97
2018-08-03T20:38:09.665Z,12.33
2018-08-03T20:40:37.860Z,11.57
2018-08-03T20:43:06.694Z,12.17
2018-08-03T20:45:34.925Z,13.37
2018-08-03T20:48:04.125Z,12.10
2018-08-03T20:50:32.325Z,11.97
2018-08-03T20:53:00.494Z,11.50
2018-08-03T20:55:28.744Z,13.20
2018-08-03T20:57:56.935Z,11.17
2018-08-03T21:00:25.173Z,12.25
2018-08-03T21:02:53.396Z,11.37
2018-08-03T21:05:21.647Z,11.85
2018-08-03T21:07:49.870Z,12.98
2018-08-03T21:10:18.052Z,13.37
2018-08-03T21:12:46.313Z,12.30
2018-08-03T21:15:14.526Z,11.53
2018-08-03T21:17:42.792Z,12.73
2018-08-03T21:20:11.020Z,11.30
2018-08-03T21:22:39.796Z,12.27
2018-08-03T21:25:08.811Z,13.35
2018-08-03T21:27:37.339Z,13.50
2018-08-03T21:30:11.566Z,12.03
2018-08-03T21:32:39.782Z,14.00
2018-08-03T21:35:08.045Z,12.53
2018-08-03T21:37:36.360Z,11.93
2018-08-03T21:40:05.175Z,12.28
2018-08-03T21:42:33.420Z,12.40
2018-08-03T21:45:01.661Z,12.63
2018-08-03T21:47:29.917Z,12.10
2018-08-03T21:49:58.112Z,11.27
2018-08-03T21:52:26.316Z,12.27
2018-08-03T21:54:55.228Z,12.40
2018-08-03T21:57:23.641Z,13.50
2018-08-03T21:59:52.140Z,11.83
2018-08-03T22:02:20.376Z,12.15
2018-08-03T22:04:48.619Z,12.13
2018-08-03T22:07:16.874Z,13.70
2018-08-03T22:09:45.435Z,12.63
2018-08-03T22:12:13.816Z,12.70
2018-08-03T22:14:45.184Z,13.40
2018-08-03T22:17:13.407Z,13.43
2018-08-03T22:19:41.866Z,13.30
2018-08-03T22:22:10.064Z,13.27
2018-08-03T22:24:38.281Z,12.53
2018-08-03T22:27:07.032Z,12.67
2018-08-03T22:29:38.004Z,14.10
2018-08-03T22:32:06.225Z,12.30
2018-08-03T22:34:34.398Z,13.90
2018-08-03T22:37:02.509Z,11.90
2018-08-03T22:49:11.708Z,12.00
2018-08-03T22:51:39.936Z,12.63
2018-08-03T22:54:08.068Z,13.33
2018-08-03T22:56:36.212Z,12.80
2018-08-03T22:59:07.899Z,13.20
2018-08-03T23:01:36.163Z,12.40
2018-08-03T23:04:04.334Z,14.00
2018-08-03T23:06:32.599Z,12.87
2018-08-03T23:09:00.762Z,12.78
2018-08-03T23:11:29.239Z,13.83
2018-08-03T23:13:57.500Z,13.30
2018-08-03T23:16:25.666Z,15.00
2018-08-03T23:18:53.864Z,12.93
2018-08-03T23:21:22.115Z,14.03
2018-08-03T23:23:50.325Z,12.60
2018-08-03T23:26:18.326Z,13.18
2018-08-03T23:28:49.988Z,13.20
2018-08-03T23:31:19.149Z,13.20
2018-08-03T23:33:47.364Z,13.55
2018-08-03T23:36:15.626Z,13.10
2018-08-03T23:38:43.815Z,13.97
2018-08-03T23:41:12.021Z,12.80
2018-08-03T23:43:40.243Z,13.47
2018-08-03T23:46:08.463Z,12.95
2018-08-03T23:48:36.667Z,12.60
2018-08-03T23:51:04.867Z,13.65
2018-08-03T23:53:33.303Z,13.30
2018-08-03T23:56:01.502Z,13.00
2018-08-03T23:58:30.028Z,12.63
